createdAt,value
2019-04-06T00:00:20.672Z,42.77
2019-04-06T00:02:50.218Z,39.07
2019-04-06T00:05:19.238Z,44.97
2019-04-06T00:07:48.521Z,45.57
2019-04-06T00:10:17.814Z,42.88
2019-04-06T00:12:47.358Z,39.60
2019-04-06T00:15:16.987Z,41.20
2019-04-06T00:17:46.166Z,43.10
2019-04-06T00:20:15.987Z,40.90
2019-04-06T00:22:45.835Z,43.58
2019-04-06T00:25:15.500Z,40.67
2019-04-06T00:27:45.088Z,41.80
2019-04-06T00:30:14.944Z,43.42
2019-04-06T00:32:46.075Z,49.93
2019-04-06T00:35:15.759Z,42.50
2019-04-06T00:37:45.202Z,43.17
2019-04-06T00:40:14.993Z,44.00
2019-04-06T00:42:44.617Z,44.03
2019-04-06T00:45:14.360Z,39.50
2019-04-06T00:47:43.836Z,42.87
2019-04-06T00:50:13.646Z,46.42
2019-04-06T00:52:43.135Z,39.77
2019-04-06T00:55:12.818Z,46.20
2019-04-06T00:57:42.014Z,44.98
2019-04-06T01:00:11.446Z,44.97
2019-04-06T01:02:40.980Z,45.67
2019-04-06T01:05:10.370Z,46.27
2019-04-06T01:07:39.718Z,42.07
2019-04-06T01:10:09.257Z,52.30
2019-04-06T01:12:38.778Z,41.30
2019-04-06T01:15:08.920Z,45.27
2019-04-06T01:17:38.809Z,44.27
2019-04-06T01:20:08.518Z,44.73
2019-04-06T01:22:38.243Z,44.97
2019-04-06T01:25:08.088Z,44.37
2019-04-06T01:27:37.804Z,42.10
2019-04-06T01:30:08.382Z,41.20
2019-04-06T01:32:38.023Z,44.10
2019-04-06T01:35:07.724Z,54.80
2019-04-06T01:37:37.320Z,48.52
2019-04-06T01:40:07.289Z,50.93
2019-04-06T01:42:36.549Z,45.17
2019-04-06T01:45:07.259Z,41.60
2019-04-06T01:47:36.928Z,43.90
2019-04-06T01:50:06.701Z,45.13
2019-04-06T01:52:36.342Z,45.00
2019-04-06T01:55:06.443Z,42.57
2019-04-06T01:57:36.244Z,42.80
2019-04-06T02:00:08.954Z,39.37
2019-04-06T02:02:40.059Z,42.95
2019-04-06T02:05:10.128Z,36.93
2019-04-06T02:07:39.652Z,40.80
2019-04-06T02:10:09.766Z,41.17
2019-04-06T02:12:38.834Z,40.33
2019-04-06T02:15:08.734Z,38.47
2019-04-06T02:17:38.211Z,41.40
2019-04-06T02:20:07.932Z,43.37
2019-04-06T02:22:37.384Z,44.17
2019-04-06T02:25:07.306Z,43.75
2019-04-06T02:27:37.035Z,54.40
2019-04-06T02:30:09.737Z,46.83
2019-04-06T02:32:40.944Z,43.13
2019-04-06T02:35:12.368Z,43.00
2019-04-06T02:37:43.577Z,39.40
2019-04-06T02:40:12.979Z,40.17
2019-04-06T02:42:47.157Z,37.08
2019-04-06T02:45:16.917Z,40.03
2019-04-06T02:47:46.683Z,39.13
2019-04-06T02:50:15.982Z,45.40
2019-04-06T02:52:46.008Z,45.50
2019-04-06T02:55:15.696Z,49.80
2019-04-06T02:57:44.638Z,44.48
2019-04-06T03:00:14.393Z,40.10
2019-04-06T03:02:43.597Z,40.23
2019-04-06T03:05:13.979Z,43.07
2019-04-06T03:07:43.731Z,40.00
2019-04-06T03:10:13.159Z,34.30
2019-04-06T03:12:42.661Z,40.60
2019-04-06T03:15:12.355Z,33.43
2019-04-06T03:17:41.888Z,40.67
2019-04-06T03:20:11.127Z,37.00
2019-04-06T03:22:40.669Z,43.63
2019-04-06T03:25:10.387Z,40.57
2019-04-06T03:27:39.976Z,35.92
2019-04-06T03:30:12.473Z,38.95
2019-04-06T03:32:41.761Z,37.80
2019-04-06T03:35:11.518Z,41.75
2019-04-06T03:37:41.006Z,43.40
2019-04-06T03:40:11.077Z,44.43
2019-04-06T03:42:40.740Z,47.43
2019-04-06T03:45:10.769Z,39.90
2019-04-06T03:47:40.506Z,43.30
2019-04-06T03:50:10.379Z,46.30
2019-04-06T03:52:39.567Z,39.97
2019-04-06T03:55:09.878Z,50.95
2019-04-06T03:57:39.146Z,42.77
2019-04-06T04:00:09.174Z,46.47
2019-04-06T04:02:38.678Z,42.97
2019-04-06T04:05:08.620Z,51.53
2019-04-06T04:07:38.222Z,47.58
2019-04-06T04:10:09.020Z,52.63
2019-04-06T04:12:38.393Z,45.07
2019-04-06T04:15:07.825Z,46.77
2019-04-06T04:17:37.373Z,48.30
2019-04-06T04:20:07.735Z,41.53
2019-04-06T04:22:37.289Z,41.57
2019-04-06T04:25:07.051Z,49.63
2019-04-06T04:27:38.120Z,50.93
2019-04-06T04:30:08.522Z,51.50
2019-04-06T04:32:37.927Z,51.63
2019-04-06T04:35:07.684Z,48.27
2019-04-06T04:37:37.478Z,50.33
2019-04-06T04:40:07.299Z,47.50
2019-04-06T04:42:36.889Z,44.20
2019-04-06T04:45:06.648Z,45.60
2019-04-06T04:47:36.189Z,53.73
2019-04-06T04:50:07.478Z,51.70
2019-04-06T04:52:36.842Z,44.73
2019-04-06T04:55:07.108Z,51.95
2019-04-06T04:57:41.199Z,47.70
2019-04-06T05:00:08.210Z,46.60
2019-04-06T05:02:37.362Z,46.40
2019-04-06T05:05:09.404Z,48.50
2019-04-06T05:07:39.519Z,61.95
2019-04-06T05:10:09.613Z,50.03
2019-04-06T05:12:38.847Z,50.17
2019-04-06T05:15:11.675Z,40.17
2019-04-06T05:17:41.011Z,46.13
2019-04-06T05:20:10.763Z,43.92
2019-04-06T05:22:40.333Z,40.23
2019-04-06T05:25:10.324Z,41.50
2019-04-06T05:27:50.760Z,39.50
2019-04-06T05:30:11.547Z,45.07
2019-04-06T05:32:41.013Z,41.25
2019-04-06T05:35:10.842Z,40.43
2019-04-06T05:37:40.297Z,35.47
2019-04-06T05:40:10.109Z,44.42
2019-04-06T05:42:39.564Z,33.23
2019-04-06T05:45:10.297Z,39.50
2019-04-06T05:47:39.923Z,30.27
2019-04-06T05:50:09.370Z,32.80
2019-04-06T05:52:38.588Z,35.93
2019-04-06T05:55:08.291Z,33.00
2019-04-06T05:57:38.086Z,35.60
2019-04-06T06:00:10.478Z,34.38
2019-04-06T06:02:41.302Z,38.87
2019-04-06T06:05:11.480Z,33.67
2019-04-06T06:07:41.713Z,28.12
2019-04-06T06:10:12.049Z,38.63
2019-04-06T06:12:41.925Z,31.93
2019-04-06T06:15:12.428Z,30.00
2019-04-06T06:17:42.350Z,33.13
2019-04-06T06:20:12.793Z,29.00
2019-04-06T06:22:42.809Z,28.55
2019-04-06T06:25:12.548Z,32.80
2019-04-06T06:27:42.023Z,31.70
2019-04-06T06:30:11.930Z,29.02
2019-04-06T06:32:41.453Z,27.50
2019-04-06T06:35:11.146Z,35.83
2019-04-06T06:37:40.638Z,28.40
2019-04-06T06:40:11.727Z,30.97
2019-04-06T06:42:41.344Z,28.20
2019-04-06T06:45:10.915Z,29.77
2019-04-06T06:47:40.639Z,32.65
2019-04-06T06:50:10.561Z,32.20
2019-04-06T06:52:40.198Z,34.53
2019-04-06T06:55:11.634Z,34.35
2019-04-06T06:57:44.107Z,29.50
2019-04-06T07:00:13.902Z,35.30
2019-04-06T07:02:43.484Z,45.27
2019-04-06T07:05:12.960Z,33.75
2019-04-06T07:07:44.302Z,33.07
2019-04-06T07:10:13.884Z,35.10
2019-04-06T07:12:43.100Z,39.17
2019-04-06T07:15:12.796Z,31.23
2019-04-06T07:17:42.424Z,34.85
2019-04-06T07:20:12.546Z,34.90
2019-04-06T07:22:42.249Z,33.97
2019-04-06T07:25:11.894Z,36.08
2019-04-06T07:27:41.395Z,40.17
2019-04-06T07:30:10.582Z,36.10
2019-04-06T07:32:40.376Z,35.10
2019-04-06T07:35:10.020Z,33.60
2019-04-06T07:37:39.761Z,36.83
2019-04-06T07:40:09.467Z,35.70
2019-04-06T07:42:38.974Z,35.97
2019-04-06T07:45:09.150Z,35.23
2019-04-06T07:47:38.748Z,37.60
2019-04-06T07:50:10.213Z,34.70
2019-04-06T07:52:39.828Z,36.90
2019-04-06T07:55:09.567Z,32.70
2019-04-06T07:57:38.956Z,38.95
2019-04-06T08:00:09.368Z,34.93
2019-04-06T08:02:38.865Z,33.90
2019-04-06T08:05:09.084Z,33.40
2019-04-06T08:07:38.496Z,35.23
2019-04-06T08:10:08.824Z,34.70
2019-04-06T08:12:38.547Z,35.37
2019-04-06T08:15:08.424Z,37.73
2019-04-06T08:17:38.047Z,34.27
2019-04-06T08:20:08.570Z,35.20
2019-04-06T08:22:38.184Z,47.83
2019-04-06T08:25:08.180Z,37.17
2019-04-06T08:27:37.724Z,37.45
2019-04-06T08:30:09.665Z,35.05
2019-04-06T08:32:40.476Z,37.00
2019-04-06T08:35:10.367Z,36.70
2019-04-06T08:37:39.710Z,35.23
2019-04-06T08:40:09.563Z,37.40
2019-04-06T08:42:39.066Z,38.10
2019-04-06T08:45:08.965Z,34.33
2019-04-06T08:47:38.495Z,36.30
2019-04-06T08:50:08.780Z,34.33
2019-04-06T08:52:38.920Z,35.28
2019-04-06T08:55:16.931Z,38.10
2019-04-06T08:57:46.510Z,35.13
2019-04-06T09:00:16.416Z,36.53
2019-04-06T09:02:47.757Z,42.35
2019-04-06T09:05:17.388Z,36.80
2019-04-06T09:07:46.988Z,41.00
2019-04-06T09:10:16.658Z,43.33
2019-04-06T09:12:46.314Z,35.85
2019-04-06T09:15:16.998Z,39.13
2019-04-06T09:17:46.738Z,34.97
2019-04-06T09:20:17.890Z,37.40
2019-04-06T09:22:47.399Z,36.08
2019-04-06T09:25:16.994Z,38.60
2019-04-06T09:27:46.613Z,40.63
2019-04-06T09:30:16.416Z,43.27
2019-04-06T09:32:45.998Z,39.67
2019-04-06T09:35:15.587Z,44.55
2019-04-06T09:37:45.167Z,38.93
2019-04-06T09:40:15.138Z,46.50
2019-04-06T09:42:44.805Z,40.05
2019-04-06T09:45:16.035Z,38.17
2019-04-06T09:47:47.307Z,37.88
2019-04-06T09:50:18.789Z,37.47
2019-04-06T09:52:52.442Z,41.63
2019-04-06T09:55:23.588Z,43.20
2019-04-06T09:57:54.771Z,41.83
2019-04-06T10:00:24.391Z,40.80
2019-04-06T10:02:59.959Z,36.80
2019-04-06T10:05:31.305Z,40.17
2019-04-06T10:08:02.673Z,37.53
2019-04-06T10:10:34.055Z,36.73
2019-04-06T10:13:05.384Z,43.85
2019-04-06T10:15:36.566Z,40.50
2019-04-06T10:18:07.218Z,45.23
2019-04-06T10:20:38.549Z,41.75
2019-04-06T10:23:09.586Z,37.80
2019-04-06T10:25:43.497Z,43.05
2019-04-06T10:28:14.134Z,39.27
2019-04-06T10:30:45.315Z,38.13
2019-04-06T10:33:16.762Z,42.47
2019-04-06T10:35:53.104Z,40.20
2019-04-06T10:38:22.635Z,39.15
2019-04-06T10:40:52.139Z,37.70
2019-04-06T10:43:23.238Z,38.63
2019-04-06T10:45:53.786Z,37.87
2019-04-06T10:48:26.488Z,40.50
2019-04-06T10:50:59.486Z,43.52
2019-04-06T10:53:30.883Z,41.57
2019-04-06T10:56:02.997Z,39.33
2019-04-06T10:58:34.273Z,40.50
2019-04-06T11:01:09.281Z,39.00
2019-04-06T11:03:40.472Z,37.93
2019-04-06T11:06:11.797Z,41.10
2019-04-06T11:08:42.350Z,39.20
2019-04-06T11:11:19.363Z,40.70
2019-04-06T11:13:48.671Z,42.33
2019-04-06T11:16:19.906Z,38.63
2019-04-06T11:18:56.828Z,39.98
2019-04-06T11:21:28.147Z,39.38
2019-04-06T11:23:58.518Z,45.00
2019-04-06T11:26:30.393Z,36.90
2019-04-06T11:29:01.554Z,43.93
2019-04-06T11:31:32.783Z,41.03
2019-04-06T11:34:03.930Z,37.35
2019-04-06T11:36:35.378Z,40.17
2019-04-06T11:39:09.017Z,39.63
2019-04-06T11:41:42.289Z,41.97
2019-04-06T11:44:13.454Z,42.93
2019-04-06T11:46:44.712Z,44.95
2019-04-06T11:49:15.992Z,40.27
2019-04-06T11:51:50.274Z,40.23
2019-04-06T11:54:20.908Z,43.70
2019-04-06T11:56:52.157Z,36.30
2019-04-06T11:59:23.378Z,33.73
2019-04-06T12:01:54.545Z,42.50
2019-04-06T12:04:26.066Z,27.73
2019-04-06T12:07:01.703Z,27.25
2019-04-06T12:09:33.839Z,30.17
2019-04-06T12:12:05.012Z,33.00
2019-04-06T12:14:36.141Z,30.83
2019-04-06T12:17:07.810Z,33.02
2019-04-06T12:19:37.089Z,24.57
2019-04-06T12:22:11.147Z,25.40
2019-04-06T12:24:44.115Z,25.43
2019-04-06T12:27:15.213Z,26.17
2019-04-06T12:29:46.063Z,22.13
2019-04-06T12:32:17.331Z,24.60
2019-04-06T12:34:48.563Z,24.20
2019-04-06T12:37:18.974Z,26.77
2019-04-06T12:39:53.057Z,29.37
2019-04-06T12:42:23.009Z,24.00
2019-04-06T12:44:54.156Z,28.43
2019-04-06T12:47:27.963Z,32.03
2019-04-06T12:49:59.373Z,34.00
2019-04-06T12:52:30.685Z,22.77
2019-04-06T12:55:01.905Z,26.23
2019-04-06T12:57:33.136Z,21.70
2019-04-06T13:00:04.357Z,24.60
2019-04-06T13:02:35.672Z,23.33
2019-04-06T13:05:12.384Z,25.77
2019-04-06T13:07:42.412Z,24.50
2019-04-06T13:10:13.634Z,28.07
2019-04-06T13:12:44.632Z,29.92
2019-04-06T13:15:18.184Z,25.23
2019-04-06T13:17:49.545Z,20.97
2019-04-06T13:20:20.802Z,22.90
2019-04-06T13:22:51.999Z,22.37
2019-04-06T13:25:22.439Z,24.63
2019-04-06T13:27:52.849Z,24.90
2019-04-06T13:30:24.103Z,24.27
2019-04-06T13:32:57.249Z,25.10
2019-04-06T13:35:32.523Z,20.80
2019-04-06T13:38:03.869Z,18.13
2019-04-06T13:40:34.929Z,24.50
2019-04-06T13:43:05.823Z,19.50
2019-04-06T13:45:40.373Z,16.63
2019-04-06T13:48:11.552Z,18.83
2019-04-06T13:50:42.997Z,19.87
2019-04-06T13:53:13.334Z,19.00
2019-04-06T13:55:44.487Z,20.87
2019-04-06T13:58:15.873Z,18.27
2019-04-06T14:00:47.811Z,16.03
2019-04-06T14:03:21.515Z,15.40
2019-04-06T14:05:51.973Z,20.60
2019-04-06T14:08:25.132Z,20.48
2019-04-06T14:10:56.265Z,16.17
2019-04-06T14:13:27.813Z,14.60
2019-04-06T14:15:58.320Z,21.43
2019-04-06T14:18:29.564Z,17.33
2019-04-06T14:21:03.557Z,19.10
2019-04-06T14:23:32.953Z,16.90
2019-04-06T14:26:03.207Z,16.53
2019-04-06T14:28:34.415Z,19.40
2019-04-06T14:31:04.953Z,20.13
2019-04-06T14:33:37.200Z,17.48
2019-04-06T14:36:11.037Z,14.27
2019-04-06T14:38:44.959Z,16.33
2019-04-06T14:41:16.783Z,17.13
2019-04-06T14:43:48.192Z,17.03
2019-04-06T14:46:19.473Z,16.00
2019-04-06T14:48:51.111Z,16.90
2019-04-06T14:51:22.662Z,17.10
2019-04-06T14:53:53.753Z,21.37
2019-04-06T14:56:24.919Z,15.30
2019-04-06T14:58:56.177Z,19.10
2019-04-06T15:01:38.473Z,16.60
2019-04-06T15:04:00.413Z,17.12
2019-04-06T15:06:34.363Z,16.42
2019-04-06T15:09:09.898Z,17.20
2019-04-06T15:11:40.990Z,17.87
2019-04-06T15:14:14.928Z,16.53
2019-04-06T15:16:46.446Z,15.33
2019-04-06T15:19:18.233Z,18.07
2019-04-06T15:21:49.486Z,17.62
2019-04-06T15:24:21.175Z,18.40
2019-04-06T15:26:52.345Z,17.67
2019-04-06T15:29:26.378Z,19.20
2019-04-06T15:31:57.655Z,17.43
2019-04-06T15:34:28.341Z,19.40
2019-04-06T15:37:00.063Z,19.12
2019-04-06T15:39:30.455Z,17.47
2019-04-06T15:42:01.590Z,18.67
2019-04-06T15:44:32.756Z,23.30
2019-04-06T15:47:03.930Z,16.80
2019-04-06T15:49:35.112Z,17.73
2019-04-06T15:52:12.245Z,22.63
2019-04-06T15:54:39.274Z,19.00
2019-04-06T15:57:11.203Z,19.00
2019-04-06T15:59:47.860Z,17.75
2019-04-06T16:02:21.500Z,17.73
2019-04-06T16:04:55.415Z,19.80
2019-04-06T16:07:33.816Z,15.08
2019-04-06T16:10:06.547Z,20.80
2019-04-06T16:12:37.765Z,17.07
2019-04-06T16:15:13.957Z,15.60
2019-04-06T16:17:45.561Z,15.97
2019-04-06T16:20:17.298Z,22.93
2019-04-06T16:22:49.096Z,17.87
2019-04-06T16:25:20.316Z,18.47
2019-04-06T16:27:57.019Z,19.87
2019-04-06T16:30:37.444Z,18.27
2019-04-06T16:33:09.622Z,16.50
2019-04-06T16:35:40.791Z,17.70
2019-04-06T16:38:12.233Z,17.03
2019-04-06T16:40:41.620Z,17.62
2019-04-06T16:43:13.140Z,19.97
2019-04-06T16:45:46.895Z,17.53
2019-04-06T16:48:27.701Z,18.83
2019-04-06T16:50:58.922Z,19.20
2019-04-06T16:53:30.069Z,19.30
2019-04-06T16:56:01.249Z,18.17
2019-04-06T16:58:31.688Z,15.90
2019-04-06T17:01:02.902Z,18.35
2019-04-06T17:03:34.044Z,18.97
2019-04-06T17:06:08.158Z,16.93
2019-04-06T17:08:39.417Z,18.57
2019-04-06T17:11:10.718Z,20.50
2019-04-06T17:13:41.972Z,22.90
2019-04-06T17:16:12.394Z,18.73
2019-04-06T17:18:43.714Z,17.80
2019-04-06T17:21:17.028Z,17.20
2019-04-06T17:23:47.911Z,18.00
2019-04-06T17:26:19.203Z,15.63
2019-04-06T17:28:50.395Z,20.03
2019-04-06T17:31:21.844Z,17.90
2019-04-06T17:33:53.197Z,17.50
2019-04-06T17:36:22.499Z,18.92
2019-04-06T17:38:53.756Z,19.90
2019-04-06T17:41:25.431Z,20.00
2019-04-06T17:43:56.667Z,16.43
2019-04-06T17:46:27.984Z,18.07
2019-04-06T17:48:59.234Z,16.12
2019-04-06T17:51:30.396Z,17.20
2019-04-06T17:54:01.633Z,18.57
2019-04-06T17:56:33.253Z,22.83
2019-04-06T17:59:03.025Z,16.52
2019-04-06T18:01:34.295Z,23.60
2019-04-06T18:04:05.447Z,19.43
2019-04-06T18:06:37.330Z,17.50
2019-04-06T18:09:10.274Z,19.60
2019-04-06T18:11:41.358Z,33.70
2019-04-06T18:14:11.173Z,22.73
2019-04-06T18:16:40.807Z,19.10
2019-04-06T18:19:10.370Z,16.93
2019-04-06T18:21:39.989Z,18.07
2019-04-06T18:24:09.542Z,21.07
2019-04-06T18:26:38.712Z,18.98
2019-04-06T18:29:08.531Z,21.30
2019-04-06T18:31:39.762Z,16.83
2019-04-06T18:34:09.370Z,20.43
2019-04-06T18:36:40.552Z,17.40
2019-04-06T18:39:11.839Z,18.77
2019-04-06T18:41:41.391Z,22.77
2019-04-06T18:44:11.304Z,17.50
2019-04-06T18:46:40.780Z,18.98
2019-04-06T18:49:10.256Z,16.70
2019-04-06T18:51:39.717Z,21.97
2019-04-06T18:54:09.896Z,20.25
2019-04-06T18:56:39.430Z,19.90
2019-04-06T18:59:10.476Z,19.17
2019-04-06T19:01:40.404Z,18.07
2019-04-06T19:04:10.447Z,17.73
2019-04-06T19:06:40.033Z,19.30
2019-04-06T19:09:20.780Z,23.02
2019-04-06T19:11:53.241Z,17.70
2019-04-06T19:14:13.107Z,18.27
2019-04-06T19:16:42.563Z,23.22
2019-04-06T19:19:12.595Z,22.02
2019-04-06T19:21:43.240Z,23.02
2019-04-06T19:24:13.786Z,23.20
2019-04-06T19:26:43.477Z,21.97
2019-04-06T19:29:16.090Z,23.93
2019-04-06T19:31:46.009Z,23.20
2019-04-06T19:34:15.774Z,21.83
2019-04-06T19:36:45.419Z,21.70
2019-04-06T19:39:15.182Z,26.33
2019-04-06T19:41:44.192Z,24.17
2019-04-06T19:44:13.535Z,27.13
2019-04-06T19:46:43.295Z,26.00
2019-04-06T19:49:13.026Z,23.80
2019-04-06T19:51:43.017Z,29.12
2019-04-06T19:54:12.317Z,25.40
2019-04-06T19:56:41.511Z,23.87
2019-04-06T19:59:12.948Z,23.52
2019-04-06T20:01:42.490Z,25.80
2019-04-06T20:04:12.055Z,30.20
2019-04-06T20:06:42.078Z,29.93
2019-04-06T20:09:11.728Z,26.73
2019-04-06T20:11:41.248Z,24.50
2019-04-06T20:14:10.781Z,25.73
2019-04-06T20:16:40.726Z,29.77
2019-04-06T20:19:10.319Z,22.10
2019-04-06T20:21:39.819Z,27.33
2019-04-06T20:24:09.612Z,28.00
2019-04-06T20:26:40.094Z,24.10
2019-04-06T20:29:09.903Z,30.50
2019-04-06T20:31:39.646Z,25.83
2019-04-06T20:34:09.094Z,22.83
2019-04-06T20:36:38.610Z,25.53
2019-04-06T20:39:09.346Z,21.87
2019-04-06T20:41:38.851Z,21.60
2019-04-06T20:44:08.643Z,23.33
2019-04-06T20:46:38.680Z,30.27
2019-04-06T20:49:09.201Z,23.77
2019-04-06T20:51:38.985Z,20.50
2019-04-06T20:54:09.061Z,22.70
2019-04-06T20:56:38.744Z,19.27
2019-04-06T20:59:07.962Z,23.33
2019-04-06T21:01:37.315Z,21.23
2019-04-06T21:04:06.943Z,22.48
2019-04-06T21:06:37.045Z,23.87
2019-04-06T21:09:09.177Z,24.33
2019-04-06T21:11:39.270Z,22.35
2019-04-06T21:14:09.074Z,21.10
2019-04-06T21:16:38.938Z,26.07
2019-04-06T21:19:09.137Z,23.10
2019-04-06T21:21:38.700Z,25.17
2019-04-06T21:24:08.091Z,23.35
2019-04-06T21:26:38.032Z,23.60
2019-04-06T21:29:07.966Z,25.00
2019-04-06T21:31:37.565Z,24.47
2019-04-06T21:34:11.869Z,22.00
2019-04-06T21:36:38.304Z,23.33
2019-04-06T21:39:08.338Z,24.53
2019-04-06T21:41:37.483Z,22.07
2019-04-06T21:44:07.542Z,22.67
2019-04-06T21:46:39.257Z,26.17
2019-04-06T21:49:11.273Z,27.23
2019-04-06T21:51:40.825Z,24.30
2019-04-06T21:54:10.114Z,25.57
2019-04-06T21:56:39.578Z,23.57
2019-04-06T21:59:09.150Z,30.83
2019-04-06T22:01:40.047Z,25.80
2019-04-06T22:04:17.563Z,25.35
2019-04-06T22:06:41.364Z,25.17
2019-04-06T22:09:12.743Z,27.40
2019-04-06T22:11:42.448Z,21.43
2019-04-06T22:14:12.476Z,23.97
2019-04-06T22:16:43.049Z,27.48
2019-04-06T22:19:12.791Z,26.87
2019-04-06T22:21:42.903Z,24.03
2019-04-06T22:24:12.455Z,25.57
2019-04-06T22:26:41.982Z,25.03
2019-04-06T22:29:11.795Z,22.63
2019-04-06T22:31:41.552Z,24.13
2019-04-06T22:36:51.586Z,24.93
2019-04-06T22:39:21.542Z,23.57
2019-04-06T22:41:50.961Z,27.98
2019-04-06T22:44:21.038Z,23.50
2019-04-06T22:46:51.411Z,24.07
2019-04-06T22:49:20.575Z,24.60
2019-04-06T22:51:50.056Z,20.70
2019-04-06T22:54:19.668Z,25.37
2019-04-06T22:56:49.565Z,25.63
2019-04-06T22:59:19.050Z,30.53
2019-04-06T23:01:49.436Z,29.48
2019-04-06T23:04:20.666Z,24.37
2019-04-06T23:06:52.455Z,29.37
2019-04-06T23:09:22.481Z,27.87
2019-04-06T23:11:52.585Z,27.60
2019-04-06T23:14:22.459Z,27.20
2019-04-06T23:16:51.948Z,30.00
2019-04-06T23:19:21.456Z,29.13
2019-04-06T23:21:51.010Z,26.67
2019-04-06T23:24:20.475Z,30.70
2019-04-06T23:26:49.952Z,30.90
2019-04-06T23:29:19.537Z,36.03
2019-04-06T23:31:49.528Z,29.60
2019-04-06T23:34:19.222Z,29.90
2019-04-06T23:36:48.195Z,28.03
2019-04-06T23:39:18.398Z,30.67
2019-04-06T23:41:48.401Z,33.05
2019-04-06T23:44:18.452Z,29.70
2019-04-06T23:46:48.164Z,28.87
2019-04-06T23:49:18.186Z,28.60
2019-04-06T23:51:47.765Z,33.43
2019-04-06T23:54:17.281Z,31.20
2019-04-06T23:56:47.498Z,27.40
2019-04-06T23:59:17.607Z,28.80
